Time;durP1;ratioP1;P1;durP2;ratioP2;P2;SDS_P1;SDS_P2;PMS_P1;PMS_P2;Temp;Humidity;BMP_temperature;BMP_pressure;BME280_temperature;BME280_humidity;BME280_pressure;Samples;Min_cycle;Max_cycle;Signal;HPM_P1;HPM_P2
2023/01/14 00:01:03;;;;;;;14.40;3.30;;;5.20;99.90;;;;;;477314;249;28136;-79
2023/01/14 00:03:04;;;;;;;9.90;3.30;;;5.30;99.90;;;;;;477261;249;27514;-80
2023/01/14 00:05:06;;;;;;;13.68;3.55;;;5.30;99.90;;;;;;477300;249;27552;-79
2023/01/14 00:07:07;;;;;;;9.82;2.80;;;5.30;99.90;;;;;;477296;249;27579;-79
2023/01/14 00:09:08;;;;;;;12.52;3.33;;;5.30;99.90;;;;;;477289;246;27642;-79
2023/01/14 00:11:09;;;;;;;9.82;3.03;;;5.40;99.90;;;;;;477296;249;27640;-80
2023/01/14 00:13:11;;;;;;;10.63;3.12;;;5.40;99.90;;;;;;477269;249;27504;-79
2023/01/14 00:15:12;;;;;;;15.27;3.80;;;5.40;99.90;;;;;;482911;245;28042;-79
2023/01/14 00:17:13;;;;;;;15.20;3.78;;;5.40;99.90;;;;;;481411;245;27468;-79
2023/01/14 00:19:15;;;;;;;12.20;3.30;;;5.40;99.90;;;;;;482897;246;27473;-80
2023/01/14 00:21:16;;;;;;;10.75;3.75;;;5.40;99.90;;;;;;483288;246;27528;-79
2023/01/14 00:23:17;;;;;;;14.30;3.40;;;5.40;99.90;;;;;;483160;232;27519;-80
2023/01/14 00:25:19;;;;;;;11.45;3.70;;;5.40;99.90;;;;;;480394;247;28062;-79
2023/01/14 00:27:20;;;;;;;19.00;3.20;;;5.40;99.90;;;;;;480270;247;27988;-80
2023/01/14 00:29:21;;;;;;;9.50;3.33;;;5.50;99.90;;;;;;480317;246;27499;-79
2023/01/14 00:31:22;;;;;;;10.65;3.30;;;5.40;99.90;;;;;;480486;247;27435;-80
2023/01/14 00:33:23;;;;;;;18.80;4.75;;;5.40;99.90;;;;;;482273;237;27548;-79
2023/01/14 00:35:25;;;;;;;11.23;3.12;;;5.40;99.90;;;;;;481490;241;27519;-84
2023/01/14 00:37:26;;;;;;;21.30;4.75;;;5.50;99.90;;;;;;473686;242;27512;-79
2023/01/14 00:39:27;;;;;;;16.17;4.07;;;5.50;99.90;;;;;;473578;247;28018;-80
2023/01/14 00:41:29;;;;;;;13.52;3.30;;;5.50;99.90;;;;;;481665;244;28085;-80
2023/01/14 00:43:30;;;;;;;17.10;5.40;;;5.50;99.90;;;;;;486252;235;27465;-80
2023/01/14 00:45:31;;;;;;;12.10;3.22;;;5.50;99.90;;;;;;485414;245;27455;-79
2023/01/14 00:47:32;;;;;;;11.65;3.22;;;5.60;99.90;;;;;;485353;245;27482;-80
2023/01/14 00:49:34;;;;;;;14.25;3.17;;;5.60;99.90;;;;;;485504;245;28013;-78
2023/01/14 00:51:35;;;;;;;13.77;3.70;;;5.60;99.90;;;;;;485493;244;27560;-79
2023/01/14 00:53:36;;;;;;;12.90;3.08;;;5.60;99.90;;;;;;480377;239;27540;-79
2023/01/14 00:55:37;;;;;;;13.25;3.80;;;5.60;99.90;;;;;;491190;242;27962;-80
2023/01/14 00:57:39;;;;;;;15.30;3.05;;;5.60;99.90;;;;;;484194;245;27347;-79
2023/01/14 00:59:42;;;;;;;10.07;3.17;;;5.60;99.90;;;;;;484254;245;27975;-78
2023/01/14 01:01:44;;;;;;;15.90;3.58;;;5.60;99.90;;;;;;487132;244;27312;-79
2023/01/14 01:03:45;;;;;;;14.18;3.65;;;5.60;99.90;;;;;;487357;244;27391;-78
2023/01/14 01:05:46;;;;;;;16.02;3.20;;;5.60;99.90;;;;;;487302;244;27328;-79
2023/01/14 01:07:47;;;;;;;13.98;3.37;;;5.60;99.90;;;;;;487267;244;27409;-79
2023/01/14 01:09:49;;;;;;;16.98;4.25;;;5.60;99.90;;;;;;487223;244;27335;-80
2023/01/14 01:11:50;;;;;;;15.10;3.92;;;5.60;99.90;;;;;;487293;240;27780;-80
2023/01/14 01:13:51;;;;;;;8.07;3.10;;;5.60;99.90;;;;;;487336;244;27360;-79
2023/01/14 01:15:53;;;;;;;16.37;3.40;;;5.60;99.90;;;;;;487337;244;27328;-78
2023/01/14 01:17:54;;;;;;;16.25;3.72;;;5.50;99.90;;;;;;487187;244;27389;-80
2023/01/14 01:19:55;;;;;;;10.65;3.15;;;5.60;99.90;;;;;;487312;244;27353;-79
2023/01/14 01:21:56;;;;;;;13.40;3.50;;;5.60;99.90;;;;;;487174;244;27367;-79
2023/01/14 01:23:58;;;;;;;9.85;3.47;;;5.60;99.90;;;;;;487323;244;27854;-80
2023/01/14 01:25:59;;;;;;;15.18;3.15;;;5.60;99.90;;;;;;487219;241;27825;-80
2023/01/14 01:28:00;;;;;;;10.88;3.15;;;5.60;99.90;;;;;;487190;244;27324;-79
2023/01/14 01:30:02;;;;;;;16.92;3.50;;;5.60;99.90;;;;;;487321;244;27341;-81
2023/01/14 01:32:03;;;;;;;9.38;3.17;;;5.70;99.90;;;;;;487168;244;27341;-80
2023/01/14 01:34:04;;;;;;;8.70;2.70;;;5.70;99.90;;;;;;487240;244;27320;-79
2023/01/14 01:36:05;;;;;;;17.25;3.80;;;5.60;99.90;;;;;;487198;244;27397;-79
2023/01/14 01:38:07;;;;;;;12.40;4.12;;;5.60;99.90;;;;;;487205;244;27850;-79
2023/01/14 01:40:08;;;;;;;15.93;4.80;;;5.60;99.90;;;;;;487197;244;27447;-80
2023/01/14 01:42:09;;;;;;;10.75;2.72;;;5.60;99.90;;;;;;487328;244;27313;-79
2023/01/14 01:44:10;;;;;;;15.30;4.03;;;5.60;99.90;;;;;;487251;244;27836;-79
2023/01/14 01:46:12;;;;;;;13.20;3.17;;;5.60;99.90;;;;;;487214;244;27340;-80
2023/01/14 01:48:13;;;;;;;11.18;3.10;;;5.60;99.90;;;;;;487276;244;27301;-80
2023/01/14 01:50:15;;;;;;;16.55;3.60;;;5.60;99.90;;;;;;487208;244;27329;-80
2023/01/14 01:52:16;;;;;;;19.30;3.50;;;5.70;99.90;;;;;;487343;244;27346;-81
2023/01/14 01:54:17;;;;;;;18.17;3.62;;;5.60;99.90;;;;;;487281;244;27834;-80
2023/01/14 01:56:18;;;;;;;12.70;3.62;;;5.70;99.90;;;;;;487319;242;27387;-80
2023/01/14 01:58:20;;;;;;;10.65;3.40;;;5.70;99.90;;;;;;487146;244;27342;-79
2023/01/14 02:00:21;;;;;;;16.83;3.87;;;5.70;99.90;;;;;;487150;244;27378;-79
2023/01/14 02:02:22;;;;;;;18.80;4.35;;;5.70;99.90;;;;;;487306;244;27906;-79
2023/01/14 02:04:23;;;;;;;17.65;3.47;;;5.70;99.90;;;;;;487305;244;27853;-80
2023/01/14 02:06:25;;;;;;;11.07;3.12;;;5.60;99.90;;;;;;487171;244;27416;-79
2023/01/14 02:08:26;;;;;;;16.05;3.70;;;5.60;99.90;;;;;;487317;244;27918;-78
2023/01/14 02:10:28;;;;;;;12.65;3.45;;;5.60;99.90;;;;;;487249;244;27487;-78
2023/01/14 02:12:29;;;;;;;13.20;3.53;;;5.60;99.90;;;;;;487136;244;27843;-80
2023/01/14 02:14:30;;;;;;;14.68;3.80;;;5.60;99.90;;;;;;486862;244;27320;-80
2023/01/14 02:16:31;;;;;;;20.65;3.95;;;5.60;99.90;;;;;;487310;244;27287;-78
2023/01/14 02:18:33;;;;;;;12.43;2.65;;;5.60;99.90;;;;;;487301;244;27373;-79
2023/01/14 02:20:34;;;;;;;12.63;3.50;;;5.70;99.90;;;;;;487205;244;27309;-80
2023/01/14 02:22:35;;;;;;;21.77;3.60;;;5.60;99.90;;;;;;488547;237;27400;-79
2023/01/14 02:24:37;;;;;;;17.15;3.67;;;5.70;99.90;;;;;;492964;241;27631;-81
2023/01/14 02:26:38;;;;;;;9.98;3.15;;;5.60;99.90;;;;;;492808;241;27391;-79
2023/01/14 02:28:39;;;;;;;15.27;3.83;;;5.60;99.90;;;;;;492928;241;27517;-80
2023/01/14 02:30:40;;;;;;;10.25;3.70;;;5.70;99.90;;;;;;492910;240;28627;-79
2023/01/14 02:32:42;;;;;;;14.38;4.18;;;5.60;99.90;;;;;;493041;241;27442;-80
2023/01/14 02:34:43;;;;;;;17.37;4.50;;;5.70;99.90;;;;;;492906;241;27405;-80
2023/01/14 02:36:44;;;;;;;14.02;4.00;;;5.60;99.90;;;;;;492910;237;28041;-79
2023/01/14 02:38:46;;;;;;;14.05;4.05;;;5.60;99.90;;;;;;492718;241;28078;-78
2023/01/14 02:40:47;;;;;;;17.25;4.47;;;5.60;99.90;;;;;;492833;241;27485;-80
2023/01/14 02:45:08;;;;;;;16.75;4.22;;;5.60;99.90;;;;;;492926;241;28027;-78
2023/01/14 02:47:09;;;;;;;17.52;4.32;;;5.50;99.90;;;;;;492892;241;28896;-79
2023/01/14 02:49:10;;;;;;;14.50;4.12;;;5.50;99.90;;;;;;492797;240;27370;-78
2023/01/14 02:51:11;;;;;;;18.65;4.45;;;5.50;99.90;;;;;;492835;241;27504;-79
2023/01/14 02:53:13;;;;;;;14.35;3.83;;;5.50;99.90;;;;;;483041;239;27428;-79
2023/01/14 02:55:14;;;;;;;11.75;3.53;;;5.50;99.90;;;;;;471362;252;27467;-79
2023/01/14 02:57:15;;;;;;;12.10;3.65;;;5.40;99.90;;;;;;471657;252;27475;-80
2023/01/14 02:59:17;;;;;;;10.38;3.67;;;5.50;99.90;;;;;;471457;252;27397;-79
2023/01/14 03:01:18;;;;;;;14.38;3.70;;;5.50;99.90;;;;;;471784;252;27445;-78
2023/01/14 03:05:26;;;;;;;15.88;3.40;;;5.40;99.90;;;;;;469394;253;27558;-78
2023/01/14 03:07:28;;;;;;;16.42;3.53;;;5.40;99.90;;;;;;469257;253;28094;-80
2023/01/14 03:09:29;;;;;;;19.70;4.05;;;5.30;99.90;;;;;;470546;252;27590;-79
2023/01/14 03:11:30;;;;;;;16.83;3.55;;;5.30;99.90;;;;;;476497;249;27520;-78
2023/01/14 03:13:32;;;;;;;18.10;3.40;;;5.30;99.90;;;;;;476918;249;27640;-78
2023/01/14 03:15:33;;;;;;;17.77;3.55;;;5.30;99.90;;;;;;476896;249;28047;-80
2023/01/14 03:17:34;;;;;;;10.32;3.47;;;5.30;99.90;;;;;;476866;249;28123;-79
2023/01/14 03:19:35;;;;;;;14.82;4.07;;;5.40;99.90;;;;;;476826;249;27492;-79
2023/01/14 03:21:37;;;;;;;9.93;3.72;;;5.30;99.90;;;;;;476888;249;28016;-80
2023/01/14 03:23:38;;;;;;;13.27;3.65;;;5.30;99.90;;;;;;476904;249;28099;-81
2023/01/14 03:25:39;;;;;;;13.18;4.35;;;5.30;99.90;;;;;;476881;249;27634;-80
2023/01/14 03:27:41;;;;;;;13.68;3.92;;;5.30;99.90;;;;;;476877;249;27533;-80
2023/01/14 03:29:42;;;;;;;11.23;3.20;;;5.30;99.90;;;;;;476918;249;27533;-80
2023/01/14 03:31:43;;;;;;;13.60;3.28;;;5.30;99.90;;;;;;476832;249;27961;-79
2023/01/14 03:33:44;;;;;;;12.05;3.85;;;5.30;99.90;;;;;;476861;249;28006;-79
2023/01/14 03:35:46;;;;;;;9.43;3.15;;;5.30;99.90;;;;;;476882;249;27484;-80
2023/01/14 03:37:47;;;;;;;13.20;3.90;;;5.30;99.90;;;;;;476870;249;27640;-79
2023/01/14 03:39:48;;;;;;;12.55;3.40;;;5.30;99.90;;;;;;476886;249;27568;-79
2023/01/14 03:44:09;;;;;;;12.65;3.50;;;5.40;99.90;;;;;;474101;246;27594;-79
2023/01/14 03:46:11;;;;;;;16.27;4.15;;;5.30;99.90;;;;;;475590;248;28126;-80
2023/01/14 03:48:12;;;;;;;14.15;3.30;;;5.40;99.90;;;;;;475622;248;27503;-78
2023/01/14 03:50:13;;;;;;;10.52;3.97;;;5.40;99.90;;;;;;475604;250;27540;-80
2023/01/14 03:54:18;;;;;;;10.90;3.47;;;5.40;99.90;;;;;;490966;242;27421;-80
2023/01/14 03:56:18;;;;;;;12.00;3.95;;;5.40;99.90;;;;;;491854;241;27375;-80
2023/01/14 03:58:20;;;;;;;9.57;3.22;;;5.40;99.90;;;;;;491754;241;27373;-79
2023/01/14 04:00:21;;;;;;;9.75;3.10;;;5.40;99.90;;;;;;491821;241;27511;-81
2023/01/14 04:02:22;;;;;;;10.60;3.12;;;5.40;99.90;;;;;;491790;242;27362;-80
2023/01/14 04:04:24;;;;;;;18.30;3.60;;;5.40;99.90;;;;;;491834;241;28112;-79
2023/01/14 04:06:25;;;;;;;16.25;3.67;;;5.40;99.90;;;;;;491729;242;27534;-79
2023/01/14 04:08:26;;;;;;;16.70;4.03;;;5.40;99.90;;;;;;491746;242;27456;-79
2023/01/14 04:10:28;;;;;;;13.10;3.08;;;5.50;99.90;;;;;;491855;241;27401;-80
2023/01/14 04:12:29;;;;;;;12.18;3.80;;;5.40;99.90;;;;;;491739;242;27369;-78
2023/01/14 04:16:50;;;;;;;11.45;3.60;;;5.40;99.90;;;;;;491848;242;27413;-79
2023/01/14 04:18:51;;;;;;;14.60;3.90;;;5.40;99.90;;;;;;491809;241;27850;-78
2023/01/14 04:20:52;;;;;;;10.77;3.75;;;5.40;99.90;;;;;;491801;241;27406;-80
2023/01/14 04:22:53;;;;;;;11.07;3.25;;;5.40;99.90;;;;;;491810;241;27425;-79
2023/01/14 04:24:55;;;;;;;15.05;3.22;;;5.30;99.90;;;;;;491785;241;27453;-79
2023/01/14 04:26:57;;;;;;;12.55;2.95;;;5.30;99.90;;;;;;491801;241;27425;-79
2023/01/14 04:28:57;;;;;;;18.90;3.78;;;5.30;99.90;;;;;;491767;241;27437;-79
2023/01/14 04:30:58;;;;;;;7.60;2.78;;;5.30;99.90;;;;;;491805;240;27413;-80
2023/01/14 04:33:00;;;;;;;15.30;3.12;;;5.30;99.90;;;;;;491735;241;28097;-79
2023/01/14 04:35:01;;;;;;;14.13;3.65;;;5.30;99.90;;;;;;491834;241;27381;-79
2023/01/14 04:37:02;;;;;;;7.03;2.90;;;5.30;99.90;;;;;;491735;241;27409;-79
2023/01/14 04:39:04;;;;;;;11.70;2.70;;;5.30;99.90;;;;;;491803;241;27924;-80
2023/01/14 04:41:05;;;;;;;12.20;3.25;;;5.30;99.90;;;;;;491828;241;27473;-78
2023/01/14 04:43:06;;;;;;;19.25;3.65;;;5.30;99.90;;;;;;491790;242;27778;-81
2023/01/14 04:45:07;;;;;;;9.85;3.12;;;5.30;99.90;;;;;;491800;242;27477;-79
2023/01/14 04:47:09;;;;;;;15.43;3.80;;;5.30;99.90;;;;;;491828;241;27401;-77
2023/01/14 04:49:10;;;;;;;12.48;3.50;;;5.40;99.90;;;;;;491771;241;28005;-79
2023/01/14 04:51:11;;;;;;;12.00;3.60;;;5.40;99.90;;;;;;491808;242;27437;-80
2023/01/14 04:53:12;;;;;;;8.70;2.70;;;5.40;99.90;;;;;;486545;237;27568;-82
2023/01/14 04:55:14;;;;;;;12.15;3.50;;;5.40;99.90;;;;;;484135;245;27604;-79
2023/01/14 04:57:15;;;;;;;18.67;3.83;;;5.40;99.90;;;;;;477440;248;27452;-79
2023/01/14 04:59:16;;;;;;;18.65;3.40;;;5.40;99.90;;;;;;484129;245;27421;-79
2023/01/14 05:01:17;;;;;;;15.82;2.95;;;5.40;99.90;;;;;;477505;248;27513;-79
2023/01/14 05:03:19;;;;;;;8.98;3.05;;;5.30;99.90;;;;;;484183;238;27522;-81
2023/01/14 05:05:20;;;;;;;19.85;4.50;;;5.30;99.90;;;;;;485519;245;27627;-79
2023/01/14 05:07:24;;;;;;;14.45;4.10;;;5.30;99.90;;;;;;485222;245;27556;-79
2023/01/14 05:09:25;;;;;;;15.00;2.92;;;5.20;99.90;;;;;;486538;244;28041;-78
2023/01/14 05:11:27;;;;;;;8.55;2.58;;;5.20;99.90;;;;;;494697;240;27902;-78
2023/01/14 05:13:28;;;;;;;11.52;3.20;;;5.20;99.90;;;;;;486976;239;27596;-78
2023/01/14 05:15:29;;;;;;;15.65;3.40;;;5.20;99.90;;;;;;484216;245;27432;-80
2023/01/14 05:17:30;;;;;;;12.40;3.22;;;5.20;99.90;;;;;;483724;245;27393;-78
2023/01/14 05:19:32;;;;;;;14.27;3.17;;;5.10;99.90;;;;;;484190;245;27440;-79
2023/01/14 05:21:33;;;;;;;8.20;3.20;;;5.10;99.90;;;;;;483179;245;27526;-80
2023/01/14 05:23:34;;;;;;;12.25;3.22;;;5.10;99.90;;;;;;483275;246;28046;-79
2023/01/14 05:25:35;;;;;;;22.85;4.43;;;5.10;99.90;;;;;;483211;246;28093;-78
2023/01/14 05:27:37;;;;;;;13.68;3.35;;;5.10;99.90;;;;;;483254;246;27469;-78
2023/01/14 05:29:38;;;;;;;21.05;3.80;;;5.10;99.90;;;;;;483244;246;27510;-80
2023/01/14 05:31:39;;;;;;;9.52;3.35;;;5.10;99.90;;;;;;483246;246;27533;-80
2023/01/14 05:33:40;;;;;;;12.07;3.20;;;5.00;99.90;;;;;;489285;236;27645;-78
2023/01/14 05:35:42;;;;;;;9.60;2.95;;;5.00;99.90;;;;;;488249;243;27435;-78
2023/01/14 05:37:43;;;;;;;18.12;2.58;;;5.00;99.90;;;;;;492161;241;27828;-79
2023/01/14 05:39:44;;;;;;;15.27;3.92;;;4.90;99.90;;;;;;488279;243;28061;-78
2023/01/14 05:46:18;;;;;;;19.77;3.72;;;4.90;99.90;;;;;;492307;241;27444;-79
2023/01/14 05:48:20;;;;;;;12.50;3.50;;;4.90;99.90;;;;;;492288;240;27892;-78
2023/01/14 05:50:21;;;;;;;15.98;4.03;;;4.80;99.90;;;;;;492307;240;27431;-79
2023/01/14 05:54:29;;;;;;;13.82;2.90;;;4.80;99.90;;;;;;479375;248;27523;-77
2023/01/14 05:56:31;;;;;;;14.90;3.97;;;4.80;99.90;;;;;;479408;248;27446;-78
2023/01/14 05:58:32;;;;;;;18.95;3.50;;;4.80;99.90;;;;;;479408;248;27545;-80
2023/01/14 06:07:31;;;;;;;18.87;3.92;;;4.70;99.90;;;;;;479312;248;27429;-79
2023/01/14 06:09:33;;;;;;;16.23;4.25;;;4.80;99.90;;;;;;479387;248;27538;-78
2023/01/14 06:11:34;;;;;;;16.12;2.90;;;4.80;99.90;;;;;;479397;248;28685;-79
2023/01/14 06:13:35;;;;;;;14.02;3.72;;;4.90;99.90;;;;;;479330;248;27870;-80
2023/01/14 06:15:39;;;;;;;17.50;3.72;;;4.90;99.90;;;;;;479441;248;27447;-80
2023/01/14 06:17:45;;;;;;;14.95;3.75;;;5.00;99.90;;;;;;479176;248;27450;-80
2023/01/14 06:19:39;;;;;;;10.07;2.90;;;5.00;99.90;;;;;;479035;248;27466;-77
2023/01/14 06:21:40;;;;;;;14.65;4.15;;;5.10;99.90;;;;;;479407;248;27588;-78
2023/01/14 06:23:41;;;;;;;11.90;3.42;;;5.10;99.90;;;;;;479410;248;27921;-79
2023/01/14 06:25:43;;;;;;;29.15;5.10;;;5.10;99.90;;;;;;479424;248;27940;-79
2023/01/14 06:27:44;;;;;;;5.93;2.87;;;5.10;99.90;;;;;;479317;248;27414;-79
2023/01/14 06:29:45;;;;;;;20.92;3.45;;;5.10;99.90;;;;;;479372;248;27567;-80
2023/01/14 06:31:46;;;;;;;15.38;3.92;;;5.20;99.90;;;;;;479401;248;27489;-78
2023/01/14 06:33:48;;;;;;;14.55;3.40;;;5.20;99.90;;;;;;479408;248;27499;-77
2023/01/14 06:35:49;;;;;;;17.08;3.72;;;5.20;99.90;;;;;;479425;248;27562;-80
2023/01/14 06:37:50;;;;;;;21.48;3.42;;;5.20;99.90;;;;;;479457;248;27966;-80
2023/01/14 06:39:51;;;;;;;15.20;3.85;;;5.30;99.90;;;;;;479311;248;27937;-81
2023/01/14 06:41:53;;;;;;;22.95;4.10;;;5.30;99.90;;;;;;479416;248;27463;-78
2023/01/14 06:43:54;;;;;;;14.52;3.00;;;5.30;99.90;;;;;;479323;248;27483;-79
2023/01/14 06:45:55;;;;;;;18.20;3.08;;;5.40;99.90;;;;;;479455;248;27467;-80
2023/01/14 06:47:57;;;;;;;18.80;3.55;;;5.40;99.90;;;;;;479434;248;27443;-80
2023/01/14 06:49:58;;;;;;;16.00;3.62;;;5.40;99.90;;;;;;479342;248;27553;-78
2023/01/14 06:51:59;;;;;;;26.25;5.20;;;5.40;99.90;;;;;;479378;248;27442;-77
2023/01/14 06:54:00;;;;;;;10.10;3.10;;;5.40;99.90;;;;;;480872;240;27617;-80
2023/01/14 06:56:02;;;;;;;12.82;3.50;;;5.40;99.90;;;;;;479356;248;27517;-80
2023/01/14 06:58:03;;;;;;;10.45;4.03;;;5.40;99.90;;;;;;479310;248;27499;-80
2023/01/14 07:00:04;;;;;;;12.00;3.65;;;5.40;99.90;;;;;;479341;248;28000;-80
2023/01/14 07:02:05;;;;;;;16.73;4.07;;;5.40;99.90;;;;;;479393;243;27941;-78
2023/01/14 07:04:07;;;;;;;10.68;2.85;;;5.40;99.90;;;;;;479393;248;27500;-78
2023/01/14 07:06:08;;;;;;;8.50;2.80;;;5.40;99.90;;;;;;479375;248;27681;-77
2023/01/14 07:08:12;;;;;;;19.50;3.60;;;5.40;99.90;;;;;;479376;248;27479;-80
2023/01/14 07:10:11;;;;;;;16.20;4.37;;;5.50;99.90;;;;;;479094;248;27927;-80
2023/01/14 07:14:18;;;;;;;10.73;3.25;;;5.50;99.90;;;;;;495428;235;27522;-80
2023/01/14 07:16:19;;;;;;;8.70;2.55;;;5.50;99.90;;;;;;495308;240;27456;-78
2023/01/14 07:18:20;;;;;;;14.65;4.07;;;5.50;99.90;;;;;;495295;240;27538;-77
2023/01/14 07:20:21;;;;;;;13.57;3.00;;;5.50;99.90;;;;;;495260;240;27439;-77
2023/01/14 07:22:23;;;;;;;17.75;3.47;;;5.50;99.90;;;;;;494898;240;28023;-78
2023/01/14 07:24:24;;;;;;;9.40;3.20;;;5.50;99.90;;;;;;495289;240;27478;-77
2023/01/14 07:26:25;;;;;;;13.15;2.60;;;5.50;99.90;;;;;;495221;240;27443;-78
2023/01/14 07:28:27;;;;;;;7.35;2.58;;;5.50;99.90;;;;;;495307;240;27616;-81
2023/01/14 07:30:28;;;;;;;7.82;2.80;;;5.50;99.90;;;;;;495281;240;27455;-78
2023/01/14 07:32:29;;;;;;;14.90;2.80;;;5.50;99.90;;;;;;495294;240;27467;-77
2023/01/14 07:34:30;;;;;;;8.60;2.50;;;5.50;99.90;;;;;;495295;240;27614;-78
2023/01/14 07:36:32;;;;;;;16.90;3.15;;;5.50;99.90;;;;;;495259;240;27912;-77
2023/01/14 07:38:33;;;;;;;9.90;2.60;;;5.50;99.90;;;;;;495278;240;28114;-80
2023/01/14 07:40:34;;;;;;;11.00;2.87;;;5.50;99.90;;;;;;495311;240;27436;-80
2023/01/14 07:42:35;;;;;;;9.57;2.30;;;5.50;99.90;;;;;;495223;240;27463;-79
2023/01/14 07:44:37;;;;;;;13.55;2.92;;;5.60;99.90;;;;;;495334;240;27515;-80
2023/01/14 07:46:38;;;;;;;7.43;2.67;;;5.50;99.90;;;;;;495261;240;27495;-80
2023/01/14 07:48:40;;;;;;;9.60;2.50;;;5.60;99.90;;;;;;495270;240;27912;-78
2023/01/14 07:50:40;;;;;;;8.23;2.60;;;5.60;99.90;;;;;;495231;240;28972;-77
2023/01/14 07:52:42;;;;;;;7.20;1.80;;;5.60;99.90;;;;;;495291;240;27468;-77
2023/01/14 07:54:43;;;;;;;11.27;2.30;;;5.60;99.90;;;;;;495296;240;27502;-80
2023/01/14 07:56:44;;;;;;;7.45;2.25;;;5.60;99.90;;;;;;495263;240;27436;-79
2023/01/14 07:58:45;;;;;;;6.47;2.50;;;5.60;99.90;;;;;;495273;240;27582;-79
2023/01/14 08:00:47;;;;;;;5.55;2.40;;;5.70;99.90;;;;;;495263;240;27841;-77
2023/01/14 08:02:48;;;;;;;14.38;3.60;;;5.60;99.90;;;;;;495223;240;27499;-75
2023/01/14 08:04:49;;;;;;;7.10;2.90;;;5.70;99.90;;;;;;495279;240;28064;-77
2023/01/14 08:06:50;;;;;;;6.15;3.20;;;5.70;99.90;;;;;;495274;240;27990;-76
2023/01/14 08:08:52;;;;;;;3.33;2.35;;;5.70;99.90;;;;;;495263;240;27486;-76
2023/01/14 08:10:53;;;;;;;4.95;2.30;;;5.70;99.90;;;;;;495283;240;27527;-81
2023/01/14 08:12:54;;;;;;;13.13;2.50;;;5.80;99.90;;;;;;495267;240;27441;-80
2023/01/14 08:14:55;;;;;;;6.68;2.28;;;5.80;99.90;;;;;;495282;240;27504;-80
2023/01/14 08:16:57;;;;;;;10.35;3.10;;;5.80;99.90;;;;;;495199;240;27919;-80
2023/01/14 08:18:58;;;;;;;7.50;2.50;;;5.80;99.90;;;;;;495274;240;28056;-81
2023/01/14 08:20:59;;;;;;;5.60;2.62;;;5.80;99.90;;;;;;495271;240;27484;-80
2023/01/14 08:23:00;;;;;;;9.65;3.05;;;5.80;99.90;;;;;;495298;240;27595;-79
2023/01/14 08:25:02;;;;;;;13.25;2.83;;;5.80;99.90;;;;;;495312;240;27520;-79
2023/01/14 08:27:03;;;;;;;5.65;2.80;;;5.80;99.90;;;;;;495350;240;27860;-79
2023/01/14 08:29:04;;;;;;;7.35;2.47;;;5.90;99.90;;;;;;495330;240;27479;-78
2023/01/14 08:31:06;;;;;;;6.80;2.50;;;5.90;99.90;;;;;;495293;240;28005;-78
2023/01/14 08:33:07;;;;;;;7.18;2.40;;;6.00;99.90;;;;;;495355;240;27926;-75
2023/01/14 08:35:08;;;;;;;4.93;2.40;;;6.00;99.90;;;;;;495333;240;27490;-80
2023/01/14 08:37:09;;;;;;;106.00;39.45;;;6.00;99.90;;;;;;495349;240;27456;-80
2023/01/14 08:39:11;;;;;;;26.37;13.77;;;6.00;99.90;;;;;;495258;240;28032;-80
2023/01/14 08:41:12;;;;;;;12.75;6.55;;;6.00;99.90;;;;;;495325;240;27508;-80
2023/01/14 08:43:13;;;;;;;14.50;6.28;;;6.00;99.90;;;;;;495322;240;27436;-75
2023/01/14 08:45:15;;;;;;;35.05;22.92;;;6.00;99.90;;;;;;495275;240;27457;-77
2023/01/14 08:47:16;;;;;;;25.58;14.60;;;6.10;99.90;;;;;;495300;240;27486;-78
2023/01/14 08:49:17;;;;;;;12.13;7.47;;;6.10;99.90;;;;;;495302;240;27976;-78
2023/01/14 08:51:20;;;;;;;11.77;8.20;;;6.10;99.90;;;;;;495311;240;27492;-80
2023/01/14 08:53:20;;;;;;;14.20;8.77;;;6.10;99.90;;;;;;495186;240;27453;-77
2023/01/14 08:55:21;;;;;;;8.93;6.20;;;6.20;99.90;;;;;;495288;240;27540;-79
2023/01/14 08:57:22;;;;;;;8.50;3.53;;;6.20;99.90;;;;;;495288;240;27510;-80
2023/01/14 08:59:23;;;;;;;7.80;3.40;;;6.20;99.90;;;;;;495220;240;27500;-80
2023/01/14 09:01:25;;;;;;;9.93;3.50;;;6.30;99.90;;;;;;495244;240;29141;-80
2023/01/14 09:03:27;;;;;;;6.87;3.25;;;6.30;99.90;;;;;;495307;240;29690;-75
2023/01/14 09:05:27;;;;;;;8.23;4.05;;;6.30;99.90;;;;;;495164;240;27918;-78
2023/01/14 09:19:03;;;;;;;5.07;2.87;;;6.60;99.90;;;;;;495312;240;27499;-77
2023/01/14 09:21:04;;;;;;;5.00;2.27;;;6.60;99.90;;;;;;495257;240;27429;-78
2023/01/14 09:23:05;;;;;;;5.25;2.35;;;6.70;99.90;;;;;;495338;240;27978;-79
2023/01/14 09:25:07;;;;;;;6.37;2.87;;;6.70;99.90;;;;;;495340;240;28021;-79
2023/01/14 09:27:08;;;;;;;2.37;2.05;;;6.80;99.90;;;;;;495306;240;29234;-77
2023/01/14 09:29:09;;;;;;;12.60;3.47;;;6.80;99.90;;;;;;495360;240;28099;-78
2023/01/14 09:31:10;;;;;;;5.60;2.17;;;6.80;99.90;;;;;;495321;240;28004;-80
2023/01/14 09:33:12;;;;;;;7.28;2.78;;;6.90;99.90;;;;;;486171;240;27567;-80
2023/01/14 09:35:13;;;;;;;11.07;2.80;;;7.00;99.90;;;;;;476343;249;27456;-80
2023/01/14 09:37:14;;;;;;;5.17;2.30;;;7.00;99.90;;;;;;476444;249;28362;-80
2023/01/14 09:39:15;;;;;;;4.37;2.27;;;7.00;99.90;;;;;;476390;249;27694;-80
2023/01/14 09:41:17;;;;;;;5.53;2.00;;;7.00;99.90;;;;;;476422;249;27902;-79
2023/01/14 09:43:18;;;;;;;2.63;1.77;;;7.00;99.90;;;;;;476423;249;27938;-80
2023/01/14 09:45:19;;;;;;;5.20;1.97;;;7.10;99.90;;;;;;476374;249;27941;-80
2023/01/14 09:47:20;;;;;;;5.70;1.70;;;7.10;99.90;;;;;;476447;249;28688;-79
2023/01/14 09:49:22;;;;;;;3.97;2.37;;;7.20;99.90;;;;;;476485;249;29383;-80
2023/01/14 09:51:23;;;;;;;4.20;2.00;;;7.20;99.90;;;;;;476440;249;28036;-80
2023/01/14 09:53:24;;;;;;;1.70;1.60;;;7.30;99.90;;;;;;476444;249;27939;-80
2023/01/14 09:55:25;;;;;;;1.90;1.57;;;7.30;99.90;;;;;;476448;249;27942;-80
2023/01/14 09:57:27;;;;;;;2.90;1.83;;;7.40;99.90;;;;;;476459;249;27981;-80
2023/01/14 09:59:28;;;;;;;3.27;1.83;;;7.30;99.90;;;;;;476425;249;27679;-80
2023/01/14 10:01:29;;;;;;;8.37;7.67;;;7.40;99.90;;;;;;475032;247;27898;-80
2023/01/14 10:03:30;;;;;;;3.07;2.20;;;7.50;99.90;;;;;;479626;240;29451;-79
2023/01/14 10:05:33;;;;;;;2.23;2.00;;;7.40;99.90;;;;;;480693;243;28376;-80
2023/01/14 10:07:33;;;;;;;1.80;1.70;;;7.50;99.90;;;;;;480838;247;28312;-80
2023/01/14 10:09:34;;;;;;;3.00;1.90;;;7.40;99.90;;;;;;480764;247;28460;-80
2023/01/14 10:11:37;;;;;;;3.43;1.70;;;7.40;99.90;;;;;;481059;247;27985;-80
2023/01/14 10:13:37;;;;;;;2.07;1.87;;;7.50;99.90;;;;;;479135;247;28579;-80
2023/01/14 10:15:38;;;;;;;3.00;2.10;;;7.50;99.90;;;;;;478714;248;27949;-80
2023/01/14 10:17:40;;;;;;;4.53;1.70;;;7.60;99.90;;;;;;478739;248;27955;-80
2023/01/14 10:19:42;;;;;;;3.30;2.17;;;7.60;99.90;;;;;;478708;248;28279;-80
2023/01/14 10:21:42;;;;;;;2.50;2.00;;;7.60;99.90;;;;;;478658;248;28398;-80
2023/01/14 10:23:43;;;;;;;1.70;1.60;;;7.70;99.90;;;;;;478671;248;28386;-80
2023/01/14 10:25:46;;;;;;;1.83;1.50;;;7.80;99.90;;;;;;478733;248;28421;-79
2023/01/14 10:27:47;;;;;;;1.60;1.23;;;7.80;99.90;;;;;;478720;248;28041;-79
2023/01/14 10:29:48;;;;;;;3.07;2.20;;;7.90;99.90;;;;;;478630;248;27938;-79
2023/01/14 10:31:50;;;;;;;2.60;1.90;;;7.90;99.90;;;;;;478742;248;28321;-80
2023/01/14 10:33:52;;;;;;;5.93;2.60;;;7.90;99.90;;;;;;485521;236;28671;-80
2023/01/14 10:35:52;;;;;;;3.40;1.87;;;7.90;99.90;;;;;;485309;242;28533;-80
2023/01/14 10:37:53;;;;;;;2.90;1.80;;;7.90;99.90;;;;;;481947;246;27907;-81
2023/01/14 10:39:55;;;;;;;4.73;1.80;;;8.00;99.90;;;;;;481940;246;27866;-80
2023/01/14 10:42:00;;;;;;;8.23;3.83;;;8.00;99.90;;;;;;482043;246;27991;-80
2023/01/14 10:43:57;;;;;;;4.30;2.47;;;8.10;99.90;;;;;;486263;236;28370;-80
2023/01/14 10:45:58;;;;;;;4.40;2.90;;;8.00;99.90;;;;;;488433;239;29385;-80
2023/01/14 10:48:02;;;;;;;4.70;1.70;;;8.10;99.90;;;;;;481084;247;28391;-80
2023/01/14 10:50:01;;;;;;;5.00;1.90;;;8.10;99.90;;;;;;481010;247;28428;-81
2023/01/14 10:52:02;;;;;;;8.90;2.50;;;8.00;99.90;;;;;;481279;247;27839;-80
2023/01/14 10:54:03;;;;;;;4.87;2.00;;;8.10;99.90;;;;;;482570;240;28051;-80
2023/01/14 10:56:05;;;;;;;3.53;1.73;;;8.00;99.90;;;;;;487249;244;27816;-80
2023/01/14 10:58:09;;;;;;;3.77;2.03;;;8.10;99.90;;;;;;483107;242;27805;-81
2023/01/14 11:00:10;;;;;;;6.53;2.87;;;8.20;99.90;;;;;;491257;242;27856;-80
2023/01/14 11:02:11;;;;;;;6.90;2.07;;;8.20;99.90;;;;;;491384;242;28521;-80
2023/01/14 11:04:13;;;;;;;8.03;2.30;;;8.20;99.90;;;;;;474671;246;28525;-81
2023/01/14 11:06:14;;;;;;;3.47;2.27;;;8.20;99.90;;;;;;476375;249;28430;-80
2023/01/14 11:08:18;;;;;;;4.67;1.80;;;8.20;99.90;;;;;;476543;247;28428;-80
2023/01/14 11:10:16;;;;;;;2.63;2.17;;;8.20;99.90;;;;;;479971;247;27868;-80
2023/01/14 11:14:31;;;;;;;3.57;1.97;;;8.30;99.90;;;;;;480846;243;28576;-80